Time;durP1;ratioP1;P1;durP2;ratioP2;P2;SDS_P1;SDS_P2;PMS_P1;PMS_P2;Temp;Humidity;BMP_temperature;BMP_pressure;BME280_temperature;BME280_humidity;BME280_pressure;Samples;Min_cycle;Max_cycle;Signal;HPM_P1;HPM_P2
2022/08/13 00:02:10;;;;;;;2.17;1.00;;;19.60;69.70;;;;;;4936336;29;20100;-51
2022/08/13 00:04:38;;;;;;;2.47;1.02;;;19.60;69.90;;;;;;4952340;28;20118;-48
2022/08/13 00:07:09;;;;;;;1.52;1.00;;;19.50;70.40;;;;;;4952183;28;20023;-49
2022/08/13 00:09:37;;;;;;;;;;;19.40;70.40;;;;;;4953418;28;20020;-48
2022/08/13 00:14:47;;;;;;;1.25;1.05;;;19.50;70.70;;;;;;4938086;29;20100;-53
2022/08/13 00:17:14;;;;;;;1.75;0.95;;;19.50;70.50;;;;;;4952086;28;20063;-49
2022/08/13 00:19:43;;;;;;;2.42;1.17;;;19.40;70.40;;;;;;4936338;29;20032;-49
2022/08/13 00:22:09;;;;;;;1.48;1.05;;;19.30;70.70;;;;;;4952027;28;20053;-49
2022/08/13 00:24:35;;;;;;;2.10;1.00;;;19.30;70.80;;;;;;4937200;29;20020;-51
2022/08/13 00:27:02;;;;;;;1.35;1.25;;;19.20;71.70;;;;;;4952102;28;20023;-50
2022/08/13 00:29:28;;;;;;;2.17;0.80;;;19.10;71.00;;;;;;4952103;28;20052;-49
2022/08/13 00:31:54;;;;;;;1.48;1.00;;;19.10;71.50;;;;;;4937720;29;20087;-50
2022/08/13 00:34:20;;;;;;;4.90;1.23;;;19.10;71.30;;;;;;4936966;29;20058;-49
2022/08/13 00:36:47;;;;;;;1.20;1.10;;;19.00;71.60;;;;;;4936956;29;20108;-49
2022/08/13 00:39:13;;;;;;;0.95;0.77;;;18.90;71.60;;;;;;4936867;29;20102;-51
2022/08/13 00:41:44;;;;;;;2.55;1.40;;;18.80;71.60;;;;;;4936857;29;20079;-52
2022/08/13 00:44:14;;;;;;;4.45;1.17;;;18.80;72.10;;;;;;4952522;28;20036;-51
2022/08/13 00:46:40;;;;;;;4.13;1.98;;;18.70;72.60;;;;;;4936725;29;20031;-49
2022/08/13 00:49:08;;;;;;;6.22;3.30;;;18.60;72.90;;;;;;4951930;28;20038;-49
2022/08/13 00:51:36;;;;;;;2.22;1.40;;;18.50;73.00;;;;;;4936470;29;20035;-54
2022/08/13 00:54:04;;;;;;;1.63;1.20;;;18.50;73.20;;;;;;4951841;28;20028;-53
2022/08/13 00:56:34;;;;;;;1.10;1.10;;;18.40;73.30;;;;;;4937003;29;20034;-50
2022/08/13 00:59:07;;;;;;;2.08;1.10;;;18.40;73.60;;;;;;4936073;29;20024;-49
2022/08/13 01:01:35;;;;;;;4.30;1.33;;;18.20;74.40;;;;;;4936618;29;20079;-49
2022/08/13 01:04:03;;;;;;;0.95;0.90;;;18.10;74.70;;;;;;4935313;29;20083;-51
2022/08/13 01:06:28;;;;;;;2.83;1.20;;;18.10;74.50;;;;;;4951116;28;20550;-50
2022/08/13 01:08:54;;;;;;;1.48;1.27;;;18.00;74.40;;;;;;4950747;28;20028;-47
2022/08/13 01:11:23;;;;;;;4.43;3.03;;;18.00;74.60;;;;;;4950939;28;20027;-49
2022/08/13 01:13:51;;;;;;;11.25;1.88;;;18.00;74.70;;;;;;4936822;29;20395;-49
2022/08/13 01:16:17;;;;;;;1.52;1.40;;;17.90;74.90;;;;;;4936295;29;20456;-49
2022/08/13 01:18:52;;;;;;;1.65;1.17;;;17.80;75.20;;;;;;4936286;29;20051;-49
2022/08/13 01:21:20;;;;;;;1.63;1.20;;;17.80;75.40;;;;;;4951113;28;20023;-47
2022/08/13 01:23:51;;;;;;;1.80;1.30;;;17.70;75.80;;;;;;4951108;28;20035;-47
2022/08/13 01:26:19;;;;;;;1.25;1.15;;;17.60;76.20;;;;;;4951546;28;20039;-48
2022/08/13 01:28:50;;;;;;;3.30;1.23;;;17.60;76.50;;;;;;4950853;28;20031;-50
2022/08/13 01:31:18;;;;;;;4.77;1.23;;;17.50;77.10;;;;;;4936217;29;20023;-49
2022/08/13 01:33:48;;;;;;;3.72;1.50;;;17.50;78.20;;;;;;4950866;28;20114;-47
2022/08/13 01:36:14;;;;;;;1.17;1.08;;;17.40;77.60;;;;;;4936182;29;20032;-47
2022/08/13 01:38:42;;;;;;;1.38;1.27;;;17.40;78.30;;;;;;4936265;29;20024;-47
2022/08/13 01:41:08;;;;;;;1.20;1.10;;;17.30;78.90;;;;;;4935937;29;20034;-49
2022/08/13 01:43:37;;;;;;;3.47;1.40;;;17.30;79.20;;;;;;4936117;29;20039;-48
2022/08/13 01:46:06;;;;;;;1.70;1.10;;;17.30;79.60;;;;;;4950703;28;20092;-47
2022/08/13 01:51:23;;;;;;;2.60;1.20;;;17.20;80.20;;;;;;4935871;29;20043;-47
2022/08/13 01:53:51;;;;;;;2.08;1.25;;;17.20;80.50;;;;;;4937654;29;20027;-48
2022/08/13 01:56:21;;;;;;;2.10;1.35;;;17.10;80.60;;;;;;4939918;29;20024;-50
2022/08/13 01:58:49;;;;;;;4.47;1.33;;;17.10;81.10;;;;;;4954615;28;20055;-51
2022/08/13 02:01:15;;;;;;;1.60;1.30;;;17.10;82.00;;;;;;4939855;29;20030;-47
2022/08/13 02:03:43;;;;;;;3.90;1.40;;;17.10;83.10;;;;;;4954642;28;20035;-47
2022/08/13 02:06:11;;;;;;;2.17;1.23;;;17.00;83.00;;;;;;4954754;28;20024;-47
2022/08/13 02:08:39;;;;;;;3.50;1.20;;;17.10;83.90;;;;;;4939651;29;20115;-48
2022/08/13 02:11:05;;;;;;;2.78;1.33;;;17.00;83.50;;;;;;4954317;28;20028;-48
2022/08/13 02:13:30;;;;;;;2.85;1.60;;;17.00;83.80;;;;;;4940002;29;20078;-47
2022/08/13 02:15:57;;;;;;;4.32;1.63;;;17.00;84.40;;;;;;4954536;28;20137;-47
2022/08/13 02:18:24;;;;;;;4.65;1.42;;;16.90;85.30;;;;;;4939827;29;20454;-47
2022/08/13 02:20:58;;;;;;;1.48;1.25;;;16.90;85.60;;;;;;4939422;29;20023;-49
2022/08/13 02:23:31;;;;;;;1.88;1.42;;;16.90;86.60;;;;;;4939853;29;20023;-47
2022/08/13 02:25:57;;;;;;;3.85;1.30;;;16.80;86.40;;;;;;4954246;28;20032;-47
2022/08/13 02:28:23;;;;;;;2.00;1.40;;;16.90;87.10;;;;;;4954104;28;20380;-47
2022/08/13 02:30:51;;;;;;;2.47;1.48;;;16.90;87.20;;;;;;4939165;29;20086;-49
2022/08/13 02:33:18;;;;;;;1.67;1.40;;;16.90;88.10;;;;;;4938381;29;20020;-47
2022/08/13 02:35:45;;;;;;;1.98;1.35;;;16.90;88.30;;;;;;4953958;28;20024;-47
2022/08/13 02:38:12;;;;;;;2.67;1.25;;;16.80;88.50;;;;;;4939181;29;20023;-47
2022/08/13 02:43:27;;;;;;;1.27;1.15;;;16.80;89.90;;;;;;4939151;29;20082;-47
2022/08/13 02:45:53;;;;;;;3.25;1.65;;;16.80;90.10;;;;;;4937770;29;20123;-47
2022/08/13 02:48:24;;;;;;;2.15;1.45;;;16.80;90.20;;;;;;4953762;28;20028;-47
2022/08/13 02:50:55;;;;;;;1.35;1.25;;;16.70;90.60;;;;;;4953595;28;20035;-47
2022/08/13 02:53:25;;;;;;;2.03;1.17;;;16.70;90.60;;;;;;4937800;29;20024;-48
2022/08/13 02:55:51;;;;;;;4.47;1.25;;;16.70;90.80;;;;;;4938866;29;20087;-49
2022/08/13 02:58:17;;;;;;;2.38;1.40;;;16.60;90.70;;;;;;4953512;28;20024;-48
2022/08/13 03:00:48;;;;;;;3.45;1.52;;;16.60;90.90;;;;;;4938800;29;20028;-47
2022/08/13 03:03:19;;;;;;;3.95;1.50;;;16.50;91.30;;;;;;4938114;29;20118;-47
2022/08/13 03:05:45;;;;;;;3.05;1.63;;;16.30;91.20;;;;;;4953017;28;20183;-47
2022/08/13 03:08:11;;;;;;;3.10;1.90;;;16.20;91.70;;;;;;4937397;29;20038;-51
2022/08/13 03:10:39;;;;;;;3.22;1.70;;;16.20;91.60;;;;;;4937228;29;20035;-51
2022/08/13 03:13:08;;;;;;;3.38;1.50;;;16.20;92.00;;;;;;4937247;29;20558;-48
2022/08/13 03:15:35;;;;;;;1.42;1.30;;;16.20;92.20;;;;;;4938506;29;20094;-48
2022/08/13 03:18:01;;;;;;;2.30;1.40;;;16.10;92.30;;;;;;4937288;29;20028;-48
2022/08/13 03:20:27;;;;;;;4.00;1.75;;;16.10;92.20;;;;;;4953267;28;20119;-54
2022/08/13 03:22:55;;;;;;;2.83;1.38;;;16.00;92.40;;;;;;4937486;29;20049;-51
2022/08/13 03:25:23;;;;;;;1.35;1.20;;;16.00;92.90;;;;;;4938670;29;20028;-49
2022/08/13 03:27:49;;;;;;;2.78;1.65;;;16.00;93.10;;;;;;4953120;28;20031;-47
2022/08/13 03:30:21;;;;;;;3.38;1.65;;;16.00;93.50;;;;;;4952861;28;20479;-51
2022/08/13 03:32:47;;;;;;;;;;;16.00;93.80;;;;;;4938682;29;20390;-53
2022/08/13 03:35:22;;;;;;;2.80;1.10;;;16.00;94.20;;;;;;4953019;28;19907;-51
2022/08/13 03:37:53;;;;;;;2.15;1.50;;;16.10;94.50;;;;;;4953333;28;20028;-47
2022/08/13 03:40:24;;;;;;;1.80;1.50;;;16.10;95.30;;;;;;4953803;28;20055;-49
2022/08/13 03:42:50;;;;;;;3.92;1.90;;;16.20;95.10;;;;;;4952925;28;20042;-50
2022/08/13 03:45:18;;;;;;;2.60;1.33;;;16.20;95.30;;;;;;4938019;29;20028;-47
2022/08/13 03:47:45;;;;;;;2.63;1.60;;;16.10;95.80;;;;;;4937933;29;20031;-48
2022/08/13 03:50:14;;;;;;;2.70;1.40;;;16.10;96.10;;;;;;4952820;28;20403;-47
2022/08/13 03:52:40;;;;;;;3.15;1.50;;;16.10;96.20;;;;;;4953042;28;20058;-48
2022/08/13 03:55:12;;;;;;;2.40;1.70;;;16.10;96.60;;;;;;4952867;28;20479;-47
2022/08/13 03:58:05;;;;;;;1.33;1.20;;;16.00;96.70;;;;;;4937716;29;20076;-48
2022/08/13 04:00:37;;;;;;;1.90;1.08;;;16.00;97.00;;;;;;4938523;29;20028;-49
2022/08/13 04:03:20;;;;;;;4.38;1.55;;;16.00;97.00;;;;;;4937653;29;20092;-47
2022/08/13 04:05:48;;;;;;;3.50;1.70;;;16.00;97.00;;;;;;4952374;28;20028;-49
2022/08/13 04:08:14;;;;;;;2.08;1.75;;;16.00;97.00;;;;;;4937592;29;20028;-47
2022/08/13 04:10:41;;;;;;;1.50;1.40;;;16.00;97.20;;;;;;4937389;29;20023;-50
2022/08/13 04:13:15;;;;;;;3.90;1.83;;;15.90;97.40;;;;;;4952239;28;20085;-47
2022/08/13 04:15:45;;;;;;;2.80;1.70;;;15.90;97.40;;;;;;4937413;29;20027;-49
2022/08/13 04:18:13;;;;;;;2.75;1.60;;;16.00;97.40;;;;;;4937719;29;20016;-49
2022/08/13 04:20:41;;;;;;;2.50;1.60;;;16.00;97.40;;;;;;4952038;28;20032;-47
2022/08/13 04:23:16;;;;;;;3.40;1.70;;;16.00;97.70;;;;;;4937547;29;20043;-48
2022/08/13 04:25:46;;;;;;;2.38;1.67;;;15.90;97.80;;;;;;4953197;28;20027;-49
2022/08/13 04:28:13;;;;;;;4.43;1.38;;;16.10;97.40;;;;;;4937270;29;20487;-50
2022/08/13 04:30:41;;;;;;;4.40;1.50;;;16.20;97.60;;;;;;4951812;28;20039;-51
2022/08/13 04:33:11;;;;;;;1.70;1.55;;;16.20;97.70;;;;;;4951813;28;20027;-51
2022/08/13 04:35:37;;;;;;;1.95;1.42;;;16.20;97.70;;;;;;4952437;28;20044;-48
2022/08/13 04:38:05;;;;;;;3.67;1.75;;;16.30;97.70;;;;;;4951763;28;20027;-48
2022/08/13 04:40:33;;;;;;;4.35;1.50;;;16.60;97.40;;;;;;4952063;28;20390;-48
2022/08/13 04:42:58;;;;;;;2.65;1.90;;;16.90;96.80;;;;;;4937028;29;20107;-51
2022/08/13 04:45:28;;;;;;;6.03;1.40;;;17.10;96.40;;;;;;4936965;29;20051;-48
2022/08/13 04:47:58;;;;;;;1.75;1.45;;;17.20;96.20;;;;;;4951571;28;20030;-49
2022/08/13 04:50:25;;;;;;;1.67;1.55;;;17.40;95.60;;;;;;4951743;28;20028;-48
2022/08/13 04:52:51;;;;;;;4.93;1.60;;;17.80;94.60;;;;;;4951624;28;20046;-48
2022/08/13 04:55:17;;;;;;;1.90;1.63;;;18.10;93.70;;;;;;4936971;29;20447;-48
2022/08/13 04:57:43;;;;;;;1.60;1.50;;;18.30;92.90;;;;;;4936652;29;20031;-49
2022/08/13 05:00:10;;;;;;;2.13;1.80;;;18.60;92.10;;;;;;4935758;29;20078;-50
2022/08/13 05:02:41;;;;;;;7.25;1.85;;;18.80;91.50;;;;;;4936842;29;20106;-49
2022/08/13 05:05:10;;;;;;;5.22;1.88;;;19.20;90.80;;;;;;4951381;28;20036;-49
2022/08/13 05:07:35;;;;;;;2.72;1.38;;;19.50;90.00;;;;;;4951614;28;20123;-49
2022/08/13 05:10:01;;;;;;;3.42;1.48;;;19.80;88.90;;;;;;4951079;28;20091;-49
2022/08/13 05:12:27;;;;;;;3.25;1.95;;;20.30;87.30;;;;;;4951620;28;20028;-47
2022/08/13 05:14:53;;;;;;;3.33;1.50;;;20.60;85.20;;;;;;4951245;28;20030;-50
2022/08/13 05:17:18;;;;;;;1.83;1.63;;;21.00;84.10;;;;;;4935494;29;20023;-49
2022/08/13 05:19:46;;;;;;;3.88;1.80;;;21.40;82.60;;;;;;4935159;29;20047;-49
2022/08/13 05:22:12;;;;;;;2.55;1.50;;;21.80;80.70;;;;;;4951128;28;20075;-51
2022/08/13 05:24:37;;;;;;;3.20;1.75;;;22.30;79.40;;;;;;4936286;29;20024;-52
2022/08/13 05:27:04;;;;;;;5.63;1.70;;;22.70;77.60;;;;;;4950670;28;20024;-49
2022/08/13 05:29:29;;;;;;;2.90;1.80;;;23.10;76.20;;;;;;4934969;29;20023;-51
2022/08/13 05:31:56;;;;;;;1.88;1.70;;;23.50;75.50;;;;;;4950947;28;20371;-52
2022/08/13 05:34:23;;;;;;;4.78;2.08;;;23.70;74.70;;;;;;4950929;28;20119;-49
2022/08/13 05:36:48;;;;;;;5.22;2.05;;;24.10;73.50;;;;;;4936218;29;20028;-52
2022/08/13 05:39:14;;;;;;;1.60;1.50;;;24.60;72.30;;;;;;4935605;29;20047;-54
2022/08/13 05:41:41;;;;;;;3.03;1.98;;;25.00;70.30;;;;;;4934892;29;20028;-58
2022/08/13 05:44:09;;;;;;;7.93;1.92;;;25.30;69.10;;;;;;4950881;28;20032;-55
2022/08/13 05:49:56;;;;;;;1.80;1.48;;;26.20;66.10;;;;;;4936254;29;20082;-57
2022/08/13 05:52:25;;;;;;;2.58;1.77;;;26.50;65.90;;;;;;4935952;29;20044;-55
2022/08/13 05:54:55;;;;;;;2.53;1.45;;;26.90;64.50;;;;;;4936014;29;20026;-56
2022/08/13 05:57:22;;;;;;;3.28;2.03;;;27.20;64.30;;;;;;4950737;28;20115;-58
2022/08/13 06:05:22;;;;;;;5.20;2.38;;;28.30;61.80;;;;;;4936213;29;20030;-58
2022/08/13 06:07:48;;;;;;;4.25;1.83;;;28.80;60.40;;;;;;4935931;29;20032;-57
2022/08/13 06:10:14;;;;;;;3.58;1.80;;;28.90;60.10;;;;;;4935759;29;20032;-61
2022/08/13 06:12:42;;;;;;;7.82;2.15;;;29.20;59.40;;;;;;4936232;29;20042;-61
2022/08/13 06:15:10;;;;;;;3.38;1.98;;;29.50;59.10;;;;;;4935785;29;20034;-59
2022/08/13 06:17:37;;;;;;;3.83;1.95;;;29.80;58.30;;;;;;4935956;29;20020;-60
2022/08/13 06:20:04;;;;;;;3.15;1.40;;;30.00;57.60;;;;;;4950607;28;20032;-56
2022/08/13 06:22:33;;;;;;;2.40;1.52;;;30.50;57.80;;;;;;4950447;28;20032;-60
2022/08/13 06:25:02;;;;;;;3.83;1.67;;;31.10;56.90;;;;;;4950549;28;20081;-59
2022/08/13 06:27:28;;;;;;;6.22;2.05;;;31.50;56.20;;;;;;4950509;28;20032;-60
2022/08/13 06:29:58;;;;;;;4.03;1.70;;;31.40;56.10;;;;;;4935669;29;20024;-60
2022/08/13 06:32:24;;;;;;;7.57;1.77;;;31.80;55.20;;;;;;4935893;29;20027;-60
2022/08/13 06:34:51;;;;;;;2.33;1.83;;;32.10;54.40;;;;;;4935779;29;20028;-59
2022/08/13 06:37:17;;;;;;;4.97;1.67;;;32.60;53.90;;;;;;4935593;29;20501;-59
2022/08/13 06:39:44;;;;;;;3.83;1.58;;;32.80;54.10;;;;;;4953077;28;20078;-57
2022/08/13 06:42:11;;;;;;;4.05;1.55;;;33.20;53.10;;;;;;4954789;28;20045;-59
2022/08/13 06:44:39;;;;;;;1.90;1.40;;;33.60;52.80;;;;;;4939379;29;20039;-60
2022/08/13 06:47:05;;;;;;;2.10;1.45;;;34.10;51.60;;;;;;4938518;29;20035;-60
2022/08/13 06:49:33;;;;;;;2.70;1.50;;;34.60;50.00;;;;;;4939592;29;20464;-58
2022/08/13 06:52:00;;;;;;;7.22;1.40;;;34.50;50.10;;;;;;4953629;28;20039;-53
2022/08/13 06:54:26;;;;;;;5.45;1.40;;;34.60;49.80;;;;;;4954281;28;20082;-54
2022/08/13 06:56:53;;;;;;;8.05;1.38;;;34.50;50.00;;;;;;4937711;29;20032;-54
2022/08/13 06:59:25;;;;;;;2.53;1.67;;;35.00;49.60;;;;;;4953900;28;20378;-53
2022/08/13 07:02:01;;;;;;;2.17;1.40;;;35.70;49.40;;;;;;4954041;28;20055;-57
2022/08/13 07:04:27;;;;;;;5.47;1.42;;;35.90;47.80;;;;;;4953578;28;20035;-54
2022/08/13 07:06:54;;;;;;;3.17;1.50;;;36.20;47.80;;;;;;4939042;29;20483;-53
2022/08/13 07:09:30;;;;;;;8.73;1.55;;;36.70;46.80;;;;;;4938662;29;20028;-52
2022/08/13 07:11:57;;;;;;;6.10;1.50;;;37.20;46.70;;;;;;4938640;29;20168;-55
2022/08/13 07:14:23;;;;;;;3.42;1.63;;;37.70;46.00;;;;;;4953542;28;20066;-53
2022/08/13 07:16:48;;;;;;;4.88;1.80;;;38.20;45.80;;;;;;4938447;29;20059;-53
2022/08/13 07:19:14;;;;;;;5.00;1.58;;;38.40;44.70;;;;;;4938314;29;20028;-53
2022/08/13 07:21:42;;;;;;;4.55;1.75;;;38.90;44.90;;;;;;4938403;29;20106;-52
2022/08/13 07:24:09;;;;;;;3.75;1.45;;;38.90;44.70;;;;;;4953517;28;20037;-52
2022/08/13 07:26:36;;;;;;;2.40;1.40;;;38.70;44.80;;;;;;4938322;29;20024;-53
2022/08/13 07:29:04;;;;;;;4.40;1.85;;;39.20;44.80;;;;;;4938235;29;20028;-51
2022/08/13 07:31:33;;;;;;;2.63;1.55;;;39.30;43.60;;;;;;4938330;29;20028;-53
2022/08/13 07:34:06;;;;;;;3.00;1.55;;;39.50;43.70;;;;;;4938224;29;20023;-51
2022/08/13 07:36:36;;;;;;;3.28;2.00;;;40.00;43.40;;;;;;4952857;28;20368;-53
2022/08/13 07:39:09;;;;;;;1.90;1.70;;;39.80;42.60;;;;;;4938194;29;20035;-54
2022/08/13 07:41:45;;;;;;;5.63;1.95;;;39.80;43.40;;;;;;4953834;28;20038;-54
2022/08/13 07:44:17;;;;;;;3.78;1.80;;;40.30;43.10;;;;;;4952778;28;20052;-55
2022/08/13 07:46:44;;;;;;;3.13;1.70;;;40.40;42.20;;;;;;4936842;29;20038;-54
2022/08/13 07:49:12;;;;;;;3.00;1.83;;;40.70;42.10;;;;;;4937913;29;20055;-53
2022/08/13 07:51:39;;;;;;;3.47;1.70;;;41.10;41.50;;;;;;4936998;29;20091;-49
2022/08/13 07:54:07;;;;;;;1.95;1.67;;;41.70;41.90;;;;;;4952936;28;20094;-50
2022/08/13 07:56:33;;;;;;;3.50;1.80;;;42.30;41.30;;;;;;4952507;28;20122;-49
2022/08/13 07:59:06;;;;;;;4.63;2.10;;;42.30;41.20;;;;;;4952486;28;20118;-51
2022/08/13 08:01:42;;;;;;;4.10;2.35;;;42.80;40.10;;;;;;4953338;28;20079;-48
2022/08/13 08:04:11;;;;;;;2.33;1.58;;;42.90;39.50;;;;;;4953329;28;20028;-51
2022/08/13 08:06:37;;;;;;;3.42;1.90;;;42.40;40.60;;;;;;4952406;28;20114;-52
2022/08/13 08:09:03;;;;;;;4.28;2.10;;;42.90;40.20;;;;;;4936277;29;20491;-51
2022/08/13 08:14:15;;;;;;;4.63;1.90;;;42.70;40.00;;;;;;4938053;29;20066;-53
2022/08/13 08:16:44;;;;;;;4.93;2.20;;;42.00;39.80;;;;;;4936196;29;20024;-54
2022/08/13 08:19:13;;;;;;;4.05;2.35;;;42.20;40.60;;;;;;4937823;29;20131;-52
2022/08/13 08:21:40;;;;;;;3.28;1.80;;;42.70;40.40;;;;;;4952116;28;20032;-52
2022/08/13 08:25:02;;;;;;;2.28;2.08;;;43.60;40.10;;;;;;4937246;29;20107;-53
2022/08/13 08:27:27;;;;;;;2.25;2.05;;;43.80;39.00;;;;;;4937503;29;20031;-53
2022/08/13 08:29:53;;;;;;;8.55;2.00;;;43.90;39.00;;;;;;4951808;28;20071;-55
2022/08/13 08:32:19;;;;;;;4.10;1.90;;;44.10;38.80;;;;;;4951819;28;20028;-57
2022/08/13 08:34:50;;;;;;;3.45;2.03;;;43.20;39.50;;;;;;4951852;28;20483;-54
2022/08/13 08:43:04;;;;;;;3.42;1.90;;;42.70;39.90;;;;;;4937093;29;20399;-49
2022/08/13 08:45:31;;;;;;;5.00;2.50;;;43.10;39.20;;;;;;4936936;29;20549;-51
2022/08/13 08:47:57;;;;;;;3.58;2.10;;;44.10;38.50;;;;;;4936780;29;20068;-49
2022/08/13 08:50:26;;;;;;;3.08;2.10;;;44.40;38.70;;;;;;4952345;28;20087;-49
2022/08/13 08:55:38;;;;;;;4.78;1.90;;;45.00;37.60;;;;;;4937063;29;20039;-51
2022/08/13 08:58:06;;;;;;;3.50;1.88;;;43.50;38.40;;;;;;4951440;28;20035;-52
2022/08/13 09:00:35;;;;;;;4.50;2.10;;;44.10;38.30;;;;;;4952266;28;20024;-49
2022/08/13 09:03:01;;;;;;;;;;;45.00;38.10;;;;;;4937048;29;20128;-49
2022/08/13 09:05:27;;;;;;;5.25;2.33;;;46.10;37.60;;;;;;4951382;28;19950;-50
2022/08/13 09:07:53;;;;;;;4.45;2.13;;;47.00;36.80;;;;;;4951802;28;20118;-50
2022/08/13 09:10:21;;;;;;;2.15;1.95;;;47.30;36.10;;;;;;4936550;29;20027;-52
2022/08/13 09:12:48;;;;;;;2.45;1.90;;;47.50;35.80;;;;;;4936793;29;20023;-51
2022/08/13 09:15:17;;;;;;;5.22;1.90;;;47.00;36.10;;;;;;4936636;29;20031;-50
2022/08/13 09:17:45;;;;;;;2.47;1.98;;;47.50;35.80;;;;;;4936428;29;20021;-51
2022/08/13 09:20:16;;;;;;;3.72;1.92;;;47.80;35.00;;;;;;4951548;28;20055;-50
2022/08/13 09:22:44;;;;;;;2.38;2.20;;;48.40;35.20;;;;;;4936791;29;20023;-50
2022/08/13 09:25:16;;;;;;;2.28;2.08;;;48.40;35.20;;;;;;4936342;29;20027;-49
2022/08/13 09:27:43;;;;;;;6.88;2.20;;;47.70;35.40;;;;;;4951200;28;20035;-50
2022/08/13 09:30:10;;;;;;;3.70;2.20;;;47.10;36.40;;;;;;4936229;29;20031;-53
2022/08/13 09:32:37;;;;;;;3.05;2.10;;;47.30;35.00;;;;;;4935191;29;20111;-49
2022/08/13 09:35:05;;;;;;;4.78;2.10;;;47.80;34.80;;;;;;4951041;28;20093;-53
2022/08/13 09:37:32;;;;;;;2.47;2.28;;;48.30;34.60;;;;;;4936240;29;20398;-52
2022/08/13 09:40:05;;;;;;;3.30;2.40;;;49.00;34.10;;;;;;4950829;28;20028;-50
2022/08/13 09:42:45;;;;;;;2.13;2.03;;;46.80;34.40;;;;;;4936166;29;20027;-51
2022/08/13 09:45:11;;;;;;;2.63;1.80;;;44.20;35.20;;;;;;4935013;29;20024;-49
2022/08/13 09:47:36;;;;;;;1.70;1.40;;;42.20;36.40;;;;;;4936180;29;20102;-53
2022/08/13 09:50:03;;;;;;;2.05;1.83;;;41.00;37.60;;;;;;4950898;28;20028;-50
2022/08/13 09:52:28;;;;;;;3.83;1.70;;;40.90;37.10;;;;;;4936543;29;20047;-50
2022/08/13 09:54:57;;;;;;;4.65;1.70;;;40.60;36.80;;;;;;4936400;29;20024;-49
2022/08/13 09:57:23;;;;;;;2.13;1.70;;;39.60;37.60;;;;;;4950866;28;20060;-50
2022/08/13 09:59:50;;;;;;;4.03;1.80;;;39.60;39.30;;;;;;4951477;28;20028;-51
2022/08/13 10:02:15;;;;;;;6.88;1.90;;;38.80;39.00;;;;;;4950750;28;20027;-49
2022/08/13 10:04:42;;;;;;;1.92;1.20;;;38.70;39.00;;;;;;4950794;28;20031;-49
2022/08/13 10:07:09;;;;;;;3.85;1.58;;;37.20;40.90;;;;;;4935972;29;20530;-52
2022/08/13 10:09:36;;;;;;;7.13;1.73;;;37.80;40.20;;;;;;4935833;29;20032;-52
2022/08/13 10:12:06;;;;;;;1.98;1.60;;;39.70;39.10;;;;;;4951676;28;20028;-52
2022/08/13 10:14:33;;;;;;;1.85;1.70;;;41.10;38.00;;;;;;4953038;28;20023;-50
2022/08/13 10:17:00;;;;;;;2.03;1.40;;;42.10;36.40;;;;;;4954518;28;20031;-54
2022/08/13 10:19:26;;;;;;;6.00;1.55;;;40.70;37.50;;;;;;4939534;29;20027;-50
2022/08/13 10:21:52;;;;;;;4.65;1.42;;;39.60;38.20;;;;;;4940162;29;20082;-50
2022/08/13 10:24:18;;;;;;;2.17;1.42;;;39.20;37.90;;;;;;4939929;29;20027;-55
2022/08/13 10:26:44;;;;;;;1.38;1.27;;;37.60;38.90;;;;;;4938970;29;20127;-51
2022/08/13 10:29:10;;;;;;;1.85;1.23;;;37.30;39.20;;;;;;4939549;29;20032;-51
2022/08/13 10:31:37;;;;;;;11.60;2.90;;;36.70;39.70;;;;;;4939394;29;20086;-49
2022/08/13 10:34:03;;;;;;;8.32;2.78;;;35.10;42.30;;;;;;4938582;29;20027;-51
2022/08/13 10:36:31;;;;;;;2.13;1.45;;;34.20;43.10;;;;;;4939726;29;20360;-53
2022/08/13 10:38:57;;;;;;;4.20;1.35;;;33.50;43.50;;;;;;4954000;28;20481;-49
2022/08/13 10:41:24;;;;;;;1.92;1.25;;;32.40;45.10;;;;;;4938352;29;20028;-49
2022/08/13 10:43:50;;;;;;;8.23;2.58;;;31.80;45.60;;;;;;4954832;28;20023;-51
2022/08/13 10:46:17;;;;;;;3.55;1.58;;;32.10;44.60;;;;;;4939654;29;20034;-49
2022/08/13 10:48:44;;;;;;;2.33;1.42;;;31.90;44.50;;;;;;4939111;29;20032;-51
2022/08/13 10:51:09;;;;;;;8.32;2.53;;;31.70;44.70;;;;;;4938909;29;20035;-49
2022/08/13 10:56:21;;;;;;;2.88;1.58;;;31.80;45.40;;;;;;4939685;29;20073;-49
2022/08/13 10:58:47;;;;;;;3.03;1.65;;;31.30;45.80;;;;;;4938889;29;20031;-54
2022/08/13 11:01:40;;;;;;;1.70;1.30;;;31.40;45.60;;;;;;4939253;29;20035;-50
2022/08/13 11:04:06;;;;;;;1.80;1.35;;;31.20;45.20;;;;;;4954529;28;20051;-52
2022/08/13 11:06:32;;;;;;;3.25;1.30;;;31.00;44.80;;;;;;4938854;29;20055;-49
2022/08/13 11:08:59;;;;;;;3.05;1.40;;;31.10;44.90;;;;;;4939063;29;20079;-53
2022/08/13 11:11:25;;;;;;;1.50;1.23;;;31.00;44.60;;;;;;4953480;28;20054;-51
2022/08/13 11:13:51;;;;;;;4.45;1.40;;;31.30;45.50;;;;;;4953486;28;20020;-50
2022/08/13 11:19:11;;;;;;;1.50;1.20;;;31.30;43.80;;;;;;4939106;29;20027;-51
2022/08/13 11:21:36;;;;;;;0.90;0.90;;;30.60;45.40;;;;;;4953270;28;20034;-49
2022/08/13 11:24:02;;;;;;;2.20;1.30;;;30.20;44.60;;;;;;4938591;29;20032;-49
2022/08/13 11:26:28;;;;;;;8.18;1.10;;;30.10;44.50;;;;;;4952094;28;20027;-49
2022/08/13 11:28:53;;;;;;;2.90;1.10;;;30.00;44.10;;;;;;4953481;28;20046;-49
2022/08/13 11:31:19;;;;;;;1.95;1.13;;;29.80;44.70;;;;;;4938342;29;20443;-49
2022/08/13 11:33:45;;;;;;;3.10;1.25;;;30.00;44.30;;;;;;4953396;28;20051;-51
2022/08/13 11:36:10;;;;;;;4.75;1.30;;;29.80;45.10;;;;;;4953359;28;20384;-52
2022/08/13 11:38:36;;;;;;;3.72;1.55;;;29.90;44.30;;;;;;4938242;29;20519;-51
2022/08/13 11:41:02;;;;;;;1.58;1.10;;;29.80;44.80;;;;;;4938847;29;20042;-51
2022/08/13 11:43:30;;;;;;;3.80;1.17;;;29.60;44.80;;;;;;4952940;28;20062;-52
2022/08/13 11:45:56;;;;;;;1.40;1.13;;;29.60;45.10;;;;;;4938142;29;20059;-56
2022/08/13 11:48:22;;;;;;;3.17;2.08;;;29.60;45.10;;;;;;4938752;29;20055;-52
2022/08/13 11:50:50;;;;;;;1.42;1.27;;;29.70;44.60;;;;;;4937921;29;20091;-49
2022/08/13 11:53:16;;;;;;;1.90;1.38;;;29.70;44.50;;;;;;4936954;29;20028;-51
2022/08/13 11:55:41;;;;;;;1.67;1.33;;;29.80;44.70;;;;;;4952778;28;20031;-56
2022/08/13 11:58:08;;;;;;;2.38;1.10;;;29.90;45.70;;;;;;4938200;29;20029;-49
2022/08/13 12:00:36;;;;;;;1.48;1.00;;;29.80;44.50;;;;;;4952650;28;20027;-50
2022/08/13 12:03:02;;;;;;;3.42;1.38;;;29.60;44.40;;;;;;4937878;29;20051;-49
2022/08/13 12:05:28;;;;;;;1.85;1.27;;;29.60;44.80;;;;;;4952792;28;20055;-50
2022/08/13 12:07:54;;;;;;;1.20;1.10;;;29.60;44.20;;;;;;4952879;28;20036;-52
2022/08/13 12:10:20;;;;;;;2.53;1.40;;;29.70;44.40;;;;;;4937486;29;20032;-49
2022/08/13 12:12:46;;;;;;;1.88;0.90;;;29.50;44.40;;;;;;4952478;28;20023;-52
2022/08/13 12:15:13;;;;;;;2.35;1.35;;;29.40;44.80;;;;;;4952948;28;20031;-53
2022/08/13 12:17:44;;;;;;;3.65;1.00;;;29.60;45.00;;;;;;4936686;29;20059;-53
2022/08/13 12:20:15;;;;;;;1.52;1.42;;;29.80;44.90;;;;;;4952522;28;20106;-50
2022/08/13 12:22:41;;;;;;;8.32;1.60;;;29.90;45.40;;;;;;4937532;29;20035;-48
2022/08/13 12:25:07;;;;;;;4.05;1.08;;;29.90;44.00;;;;;;4952249;28;20023;-49
2022/08/13 12:27:33;;;;;;;4.05;1.10;;;29.70;44.70;;;;;;4952490;28;20123;-54
2022/08/13 12:29:59;;;;;;;2.00;1.10;;;29.60;44.40;;;;;;4937215;29;20095;-50
2022/08/13 12:32:25;;;;;;;5.25;1.52;;;29.70;44.30;;;;;;4952869;28;20034;-49
2022/08/13 12:34:50;;;;;;;4.07;2.45;;;29.60;44.20;;;;;;4937200;29;20313;-50
2022/08/13 12:37:16;;;;;;;2.70;1.40;;;29.60;44.80;;;;;;4936663;29;20023;-51
2022/08/13 12:39:42;;;;;;;2.92;1.60;;;29.50;44.60;;;;;;4937042;29;20019;-52
2022/08/13 12:42:07;;;;;;;1.20;1.10;;;29.40;45.30;;;;;;4937000;29;20028;-49
2022/08/13 12:44:33;;;;;;;1.40;1.27;;;29.40;45.80;;;;;;4937384;29;20038;-49
2022/08/13 12:46:59;;;;;;;1.48;1.30;;;29.50;45.80;;;;;;4952535;28;20035;-51
2022/08/13 12:49:25;;;;;;;1.30;1.20;;;29.60;45.80;;;;;;4951993;28;20141;-52
2022/08/13 12:51:50;;;;;;;2.15;1.30;;;29.60;45.90;;;;;;4937006;29;20180;-49
2022/08/13 12:54:16;;;;;;;7.18;1.27;;;29.70;46.10;;;;;;4937123;29;20035;-50
2022/08/13 12:56:43;;;;;;;5.90;1.40;;;29.70;45.40;;;;;;4937490;29;20020;-48
2022/08/13 12:59:09;;;;;;;1.77;1.60;;;29.60;45.70;;;;;;4937147;29;20039;-49
2022/08/13 13:01:34;;;;;;;4.88;1.52;;;29.60;46.40;;;;;;4951956;28;20032;-49
2022/08/13 13:04:00;;;;;;;7.47;2.63;;;29.60;46.10;;;;;;4935753;29;20027;-49
2022/08/13 13:06:26;;;;;;;2.00;1.40;;;29.50;46.10;;;;;;4951349;28;20066;-51
2022/08/13 13:08:51;;;;;;;1.90;1.30;;;29.50;46.60;;;;;;4936488;29;20110;-53
2022/08/13 13:11:17;;;;;;;1.95;1.60;;;29.40;46.50;;;;;;4936907;29;20131;-49
2022/08/13 13:13:45;;;;;;;2.97;1.40;;;29.40;46.70;;;;;;4952378;28;20028;-54
2022/08/13 13:16:10;;;;;;;2.10;1.50;;;29.40;47.40;;;;;;4936588;29;20028;-54
2022/08/13 13:18:36;;;;;;;2.92;1.70;;;29.50;46.70;;;;;;4936531;29;20035;-51
2022/08/13 13:21:02;;;;;;;3.42;1.45;;;29.50;46.20;;;;;;4951273;28;20032;-51
2022/08/13 13:23:29;;;;;;;3.67;1.20;;;29.60;46.50;;;;;;4951043;28;20035;-49
2022/08/13 13:25:56;;;;;;;8.73;1.83;;;29.60;46.60;;;;;;4936338;29;20038;-51